createdAt,value
2023-04-23T00:05:05.255Z,62.28
2023-04-23T00:10:10.448Z,57.30
2023-04-23T00:15:15.498Z,56.97
2023-04-23T00:20:21.841Z,63.22
2023-04-23T00:25:25.536Z,56.10
2023-04-23T00:30:29.515Z,55.50
2023-04-23T00:35:34.644Z,59.33
2023-04-23T00:40:38.696Z,53.08
2023-04-23T00:45:42.925Z,56.70
2023-04-23T00:50:48.366Z,56.83
2023-04-23T00:55:52.795Z,54.80
2023-04-23T01:00:57.846Z,52.62
2023-04-23T01:06:03.691Z,50.12
2023-04-23T01:11:07.524Z,57.35
2023-04-23T01:16:11.452Z,60.47
2023-04-23T01:21:19.190Z,53.83
2023-04-23T01:26:26.792Z,54.03
2023-04-23T01:31:31.623Z,50.33
2023-04-23T01:36:36.730Z,50.63
2023-04-23T01:41:42.536Z,52.30
2023-04-23T01:46:46.737Z,49.05
2023-04-23T01:51:51.160Z,52.83
2023-04-23T01:56:57.332Z,49.45
2023-04-23T02:02:01.124Z,49.78
2023-04-23T02:07:05.065Z,44.35
2023-04-23T02:12:10.151Z,44.33
2023-04-23T02:17:13.895Z,43.15
2023-04-23T02:22:17.729Z,45.95
2023-04-23T02:27:23.261Z,41.55
2023-04-23T02:32:28.030Z,46.28
2023-04-23T02:37:31.784Z,40.35
2023-04-23T02:42:37.112Z,40.05
2023-04-23T02:47:41.580Z,39.03
2023-04-23T02:52:45.535Z,41.47
2023-04-23T02:57:50.815Z,41.95
2023-04-23T03:02:54.814Z,41.70
2023-04-23T03:07:59.289Z,37.97
2023-04-23T03:13:04.908Z,39.35
2023-04-23T03:18:08.622Z,38.75
2023-04-23T03:23:12.806Z,35.90
2023-04-23T03:28:18.000Z,33.72
2023-04-23T03:33:21.832Z,32.90
2023-04-23T03:38:25.957Z,36.92
2023-04-23T03:43:31.779Z,34.33
2023-04-23T03:48:36.815Z,35.83
2023-04-23T03:53:41.383Z,34.85
2023-04-23T03:58:49.316Z,35.20
2023-04-23T04:03:53.889Z,38.63
2023-04-23T04:08:59.591Z,33.45
2023-04-23T04:14:05.041Z,32.83
2023-04-23T04:19:09.198Z,34.90
2023-04-23T04:24:12.890Z,36.50
2023-04-23T04:29:17.947Z,35.70
2023-04-23T04:34:21.695Z,34.22
2023-04-23T04:39:25.786Z,35.00
2023-04-23T04:44:31.277Z,37.17
2023-04-23T04:49:35.098Z,38.65
2023-04-23T04:54:38.822Z,32.15
2023-04-23T04:59:44.127Z,34.00
2023-04-23T05:04:48.011Z,34.75
2023-04-23T05:09:51.688Z,33.38
2023-04-23T05:14:56.765Z,30.88
2023-04-23T05:20:00.462Z,35.95
2023-04-23T05:25:04.396Z,32.17
2023-04-23T05:30:11.348Z,29.60
2023-04-23T05:35:15.036Z,32.45
2023-04-23T05:40:18.872Z,30.60
2023-04-23T05:45:24.168Z,32.40
2023-04-23T05:50:27.866Z,29.90
2023-04-23T05:55:31.574Z,25.35
2023-04-23T06:00:37.104Z,34.10
2023-04-23T06:05:43.312Z,26.92
2023-04-23T06:10:47.621Z,26.52
2023-04-23T06:15:52.782Z,25.80
2023-04-23T06:20:57.351Z,25.48
2023-04-23T06:26:01.848Z,22.42
2023-04-23T06:31:08.035Z,23.12
2023-04-23T06:36:11.890Z,18.37
2023-04-23T06:41:15.928Z,17.58
2023-04-23T06:46:21.112Z,22.80
2023-04-23T06:51:26.879Z,20.30
2023-04-23T06:56:30.557Z,16.60
2023-04-23T07:01:35.898Z,19.55
2023-04-23T07:06:39.669Z,14.82
2023-04-23T07:11:43.424Z,19.80
2023-04-23T07:16:48.498Z,16.60
2023-04-23T07:21:53.394Z,21.00
2023-04-23T07:26:57.162Z,23.12
2023-04-23T07:32:02.317Z,13.02
2023-04-23T07:37:06.214Z,14.95
2023-04-23T07:42:10.004Z,12.88
2023-04-23T07:47:15.044Z,18.20
2023-04-23T07:52:18.809Z,15.32
2023-04-23T07:57:22.584Z,18.52
2023-04-23T08:02:28.662Z,14.23
2023-04-23T08:07:33.264Z,21.10
2023-04-23T08:12:37.356Z,14.30
2023-04-23T08:17:43.084Z,12.98
2023-04-23T08:22:47.223Z,13.93
2023-04-23T08:27:51.219Z,14.10
2023-04-23T08:32:56.879Z,18.15
2023-04-23T08:38:01.373Z,25.52
2023-04-23T08:43:11.725Z,15.95
2023-04-23T08:48:17.198Z,12.25
2023-04-23T08:53:23.698Z,13.82
2023-04-23T08:58:28.926Z,9.00
2023-04-23T09:03:34.997Z,10.45
2023-04-23T09:08:39.621Z,13.55
2023-04-23T09:13:43.458Z,8.90
2023-04-23T09:18:49.831Z,7.95
2023-04-23T09:23:54.029Z,11.23
2023-04-23T09:28:57.923Z,10.93
2023-04-23T09:34:03.359Z,9.82
2023-04-23T09:39:13.682Z,11.95
2023-04-23T09:44:20.075Z,9.27
2023-04-23T09:49:25.122Z,8.15
2023-04-23T09:54:29.002Z,8.85
2023-04-23T09:59:47.031Z,9.73
2023-04-23T10:05:03.426Z,8.88
2023-04-23T10:10:11.156Z,7.68
2023-04-23T10:15:15.880Z,5.03
2023-04-23T10:20:23.150Z,8.60
2023-04-23T10:25:27.256Z,7.75
2023-04-23T10:30:31.685Z,6.82
2023-04-23T10:35:37.118Z,5.87
2023-04-23T10:40:44.729Z,8.02
2023-04-23T10:45:50.448Z,4.10
2023-04-23T10:51:14.465Z,5.47
2023-04-23T10:56:23.858Z,9.38
2023-04-23T11:01:30.148Z,8.38
2023-04-23T11:06:58.026Z,9.38
2023-04-23T11:12:03.610Z,7.53
2023-04-23T11:17:07.704Z,7.65
2023-04-23T11:22:17.336Z,7.75
2023-04-23T11:27:21.452Z,8.27
2023-04-23T11:32:25.485Z,6.50
2023-04-23T11:37:30.773Z,7.95
2023-04-23T11:42:42.630Z,7.53
2023-04-23T11:47:48.379Z,6.87
2023-04-23T11:52:53.930Z,6.22
2023-04-23T11:57:58.789Z,5.15
2023-04-23T12:03:05.047Z,11.60
2023-04-23T12:08:11.468Z,4.57
2023-04-23T12:13:16.437Z,3.92
2023-04-23T12:18:20.584Z,7.82
2023-04-23T12:23:29.181Z,5.35
2023-04-23T12:28:33.157Z,5.32
2023-04-23T12:33:36.888Z,5.03
2023-04-23T12:38:42.473Z,7.45
2023-04-23T12:43:48.727Z,5.65
2023-04-23T12:48:52.614Z,5.30
2023-04-23T12:53:57.664Z,5.90
2023-04-23T12:59:01.954Z,5.65
2023-04-23T13:04:05.716Z,3.87
2023-04-23T13:09:11.522Z,5.15
2023-04-23T13:14:15.261Z,5.90
2023-04-23T13:19:18.948Z,7.30
2023-04-23T13:24:24.004Z,5.07
2023-04-23T13:29:28.209Z,4.53
2023-04-23T13:34:31.925Z,2.78
2023-04-23T13:39:39.958Z,4.40
2023-04-23T13:44:45.140Z,5.57
2023-04-23T13:49:48.971Z,4.55
2023-04-23T13:54:54.678Z,8.93
2023-04-23T13:59:58.518Z,6.30
2023-04-23T14:05:03.774Z,10.90
2023-04-23T14:10:09.866Z,9.27
2023-04-23T14:15:14.510Z,13.15
2023-04-23T14:20:20.016Z,9.05
2023-04-23T14:25:35.462Z,13.57
2023-04-23T14:30:41.917Z,9.65
2023-04-23T14:35:45.636Z,5.15
2023-04-23T14:40:51.344Z,6.05
2023-04-23T14:45:55.195Z,10.20
2023-04-23T14:50:59.332Z,8.85
2023-04-23T14:56:04.398Z,10.43
2023-04-23T15:01:08.366Z,9.10
2023-04-23T15:06:12.120Z,9.57
2023-04-23T15:15:16.875Z,7.60
2023-04-23T15:20:21.513Z,7.22
2023-04-23T15:25:25.578Z,4.82
2023-04-23T15:30:30.963Z,6.00
2023-04-23T15:35:34.626Z,12.55
2023-04-23T15:40:42.717Z,7.05
2023-04-23T15:45:48.573Z,7.47
2023-04-23T15:50:52.390Z,4.15
2023-04-23T15:55:56.040Z,6.55
2023-04-23T16:01:01.895Z,2.83
2023-04-23T16:06:06.045Z,6.82
2023-04-23T16:11:09.782Z,4.25
2023-04-23T16:16:14.824Z,6.80
2023-04-23T16:21:18.528Z,6.00
2023-04-23T16:26:22.448Z,6.68
2023-04-23T16:31:27.876Z,5.57
2023-04-23T16:36:32.584Z,6.75
2023-04-23T16:41:36.634Z,7.03
2023-04-23T16:46:42.256Z,5.93
2023-04-23T16:51:46.287Z,8.63
2023-04-23T17:02:29.889Z,6.53
2023-04-23T17:07:33.691Z,3.92
2023-04-23T17:12:37.382Z,5.53
2023-04-23T17:17:42.485Z,9.07
2023-04-23T17:22:46.280Z,5.15
2023-04-23T17:27:50.019Z,7.72
2023-04-23T17:32:55.182Z,5.57
2023-04-23T17:37:58.913Z,5.43
2023-04-23T17:43:02.718Z,8.13
2023-04-23T17:48:08.206Z,8.00
2023-04-23T17:53:12.109Z,7.93
2023-04-23T17:58:15.876Z,5.22
2023-04-23T18:03:21.933Z,6.85
2023-04-23T18:08:25.959Z,5.75
2023-04-23T18:13:29.862Z,8.43
2023-04-23T18:18:35.004Z,6.18
2023-04-23T18:23:39.670Z,6.53
2023-04-23T18:28:43.629Z,6.07
2023-04-23T18:33:55.357Z,4.60
2023-04-23T18:38:59.651Z,6.80
2023-04-23T18:44:03.368Z,5.97
2023-04-23T18:49:38.416Z,2.90
2023-04-23T18:54:44.202Z,1.25
2023-04-23T18:59:47.924Z,0.62
2023-04-23T19:04:53.141Z,0.68
2023-04-23T19:09:56.965Z,0.40
2023-04-23T19:20:26.156Z,0.62
2023-04-23T19:25:29.948Z,0.90
2023-04-23T19:30:33.988Z,0.65
2023-04-23T19:35:40.415Z,1.58
2023-04-23T19:40:44.375Z,0.50
2023-04-23T19:45:48.182Z,0.40
2023-04-23T19:50:53.357Z,0.55
2023-04-23T19:55:57.140Z,3.90
2023-04-23T20:01:01.046Z,1.45
2023-04-23T20:06:06.536Z,0.60
2023-04-23T20:11:10.430Z,0.75
2023-04-23T20:16:14.224Z,1.10
2023-04-23T20:21:19.318Z,0.70
2023-04-23T20:26:23.045Z,1.25
2023-04-23T20:31:26.913Z,5.70
2023-04-23T20:36:33.308Z,1.27
2023-04-23T20:41:37.049Z,1.67
2023-04-23T20:46:41.393Z,1.23
2023-04-23T20:51:46.730Z,4.80
2023-04-23T20:56:54.038Z,1.37
2023-04-23T21:01:58.277Z,2.60
2023-04-23T21:07:03.453Z,2.03
2023-04-23T21:12:07.428Z,1.30
2023-04-23T21:17:11.458Z,2.92
2023-04-23T21:22:16.831Z,1.10
2023-04-23T21:27:21.797Z,3.45
2023-04-23T21:32:26.229Z,2.25
2023-04-23T21:37:33.320Z,6.32
2023-04-23T21:42:37.088Z,6.32
2023-04-23T21:47:42.430Z,5.53
2023-04-23T21:52:47.579Z,5.47
2023-04-23T21:57:51.490Z,7.15
2023-04-23T22:02:56.018Z,4.22
2023-04-23T22:08:01.483Z,8.90
2023-04-23T22:13:05.400Z,5.53
2023-04-23T22:18:09.343Z,6.45
2023-04-23T22:23:14.457Z,6.07
2023-04-23T22:28:18.341Z,6.75
2023-04-23T22:33:22.050Z,12.10
2023-04-23T22:38:27.262Z,12.43
2023-04-23T22:43:30.994Z,12.75
2023-04-23T22:48:34.766Z,13.32
2023-04-23T22:53:39.799Z,14.52
2023-04-23T22:58:43.532Z,21.17
2023-04-23T23:03:47.338Z,19.92
2023-04-23T23:08:52.524Z,24.63
2023-04-23T23:13:56.398Z,22.73
2023-04-23T23:19:00.165Z,24.17
2023-04-23T23:24:05.989Z,25.58
2023-04-23T23:29:09.738Z,21.98
2023-04-23T23:34:13.492Z,29.23
2023-04-23T23:39:20.037Z,36.40
2023-04-23T23:44:23.739Z,37.45
2023-04-23T23:49:27.478Z,37.70
2023-04-23T23:54:32.763Z,37.70
2023-04-23T23:59:36.559Z,29.90
